Sirius — WDA2145 — position and weather

sailwx.info

Track history (hours):
 
Tides and Currents Weather Stations Pressure Air Temp Water Temp Dewpoint Dewpoint Depression Visibility Wind Speed Wind Dir Waves Ship Positions

Sirius

Owner: TISBURY TOWING AND TRANSPORTATION INC, TISBURY, MA. More information available from US FCC via Universal Licensing System and Coast Guard Vessel Documentation Center.

Last reported at 2014-Oct-20 15:33 UTC. Time now 2014-Oct-20 21:18 UTC.
Position N 41°23' W 070°29'.

Length 19 m; draft 1.9 m.

Type: Towing. MMSI: 367181040.

Date/timePositionNaut miles runAvg speedWind from/ knotsBaromVisibWave heightAir tempDewpointWater temp
2014-Oct-20 15:33N 41°23' W 070°29'2 1.6
2014-Oct-20 14:20N 41°24' W 070°31'0 0.2
2014-Oct-20 12:06N 41°25' W 070°31'0 0.5
2014-Oct-20 11:25N 41°25' W 070°31'3 2.8
2014-Oct-20 10:28N 41°27' W 070°33'2 0.0
2014-Oct-18 07:17N 41°27' W 070°36'1 1.7
2014-Oct-18 06:28N 41°29' W 070°35'5 5.3
2014-Oct-18 05:33N 41°31' W 070°41'6 5.7
2014-Oct-18 04:33N 41°33' W 070°48'5 5.0
2014-Oct-18 03:34N 41°36' W 070°53'0 0.1
2014-Oct-18 01:09N 41°36' W 070°54'3 5.5
2014-Oct-18 00:33N 41°33' W 070°51'6 5.6
2014-Oct-17 23:29N 41°32' W 070°43'5 5.1
2014-Oct-17 22:33N 41°30' W 070°37'5 4.8
2014-Oct-17 21:32N 41°29' W 070°31'5 4.8
2014-Oct-17 20:33N 41°27' W 070°25'14 1.2
2014-Oct-17 08:33N 41°22' W 070°08'5 4.8
2014-Oct-17 07:27N 41°25' W 070°14'5 5.4
2014-Oct-17 06:31N 41°26' W 070°20'5 4.8
2014-Oct-17 05:33N 41°27' W 070°26'4 4.5
2014-Oct-17 04:33N 41°28' W 070°32'4 3.7
2014-Oct-17 03:33N 41°30' W 070°36'3 3.3
2014-Oct-17 02:34N 41°31' W 070°40'2 2.0
2014-Oct-17 01:33N 41°32' W 070°43'5 4.7
2014-Oct-17 00:33N 41°33' W 070°49'4 4.1
2014-Oct-16 23:33N 41°35' W 070°53'3 3.5
2014-Oct-16 22:33N 41°39' W 070°55'0 0.0
2014-Oct-16 20:20N 41°39' W 070°55'8 1.8
2014-Oct-16 16:12N 41°33' W 070°49'4 6.1
2014-Oct-16 15:33N 41°32' W 070°44'8 5.5
2014-Oct-16 14:11N 41°27' W 070°36'0 0.0
2014-Oct-15 18:13N 41°27' W 070°36'0 0.2
2014-Oct-15 17:34N 41°27' W 070°36'4 4.5
2014-Oct-15 16:33N 41°28' W 070°30'8 7.2
2014-Oct-15 15:30N 41°27' W 070°20'7 7.3
2014-Oct-15 14:33N 41°25' W 070°11'7 7.2
2014-Oct-15 13:33N 41°19' W 070°06'2 1.7
2014-Oct-15 12:33N 41°17' W 070°06'0 0.0
2014-Oct-15 11:31N 41°17' W 070°06'0 0.0
2014-Oct-15 10:33N 41°17' W 070°06'0 0.0
2014-Oct-15 09:33N 41°17' W 070°06'0 0.0
2014-Oct-15 08:33N 41°17' W 070°06'1 0.8
2014-Oct-15 07:33N 41°18' W 070°06'6 6.3
2014-Oct-15 06:33N 41°24' W 070°09'7 6.8
2014-Oct-15 05:33N 41°26' W 070°17'7 7.1
2014-Oct-15 04:33N 41°28' W 070°27'7 6.6
2014-Oct-15 03:33N 41°29' W 070°35'6 6.3
2014-Oct-15 02:33N 41°32' W 070°43'6 6.3
2014-Oct-15 01:33N 41°33' W 070°51'5 5.4
2014-Oct-15 00:34N 41°38' W 070°55'0 0.1
2014-Oct-14 22:33N 41°38' W 070°55'6 6.0
2014-Oct-14 21:33N 41°33' W 070°51'8 7.6
2014-Oct-14 20:33N 41°31' W 070°41'5 5.0
2014-Oct-14 19:31N 41°27' W 070°36'0 0.0
2014-Oct-14 18:33N 41°27' W 070°36'0 0.0
2014-Oct-14 17:33N 41°27' W 070°36'0 0.2
2014-Oct-14 16:34N 41°28' W 070°36'5 5.2
2014-Oct-14 15:33N 41°31' W 070°41'7 6.6
2014-Oct-14 14:33N 41°33' W 070°49'12 0.9
2014-Oct-14 02:20N 41°27' W 070°36'0 0.0
2014-Oct-14 01:30N 41°27' W 070°36'0 0.0
2014-Oct-14 00:33N 41°27' W 070°36'  
Track history (hours):
 
Tides and Currents Weather Stations Pressure Air Temp Water Temp Dewpoint Dewpoint Depression Visibility Wind Speed Wind Dir Waves Ship Positions

Sirius

Owner: TISBURY TOWING AND TRANSPORTATION INC, TISBURY, MA. More information available from US FCC via Universal Licensing System and Coast Guard Vessel Documentation Center.

Last reported at 2014-Oct-20 15:33 UTC. Time now 2014-Oct-20 21:18 UTC.
Position N 41°23' W 070°29'.

Length 19 m; draft 1.9 m.

Type: Towing. MMSI: 367181040.

Date/timePositionNaut miles runAvg speedWind from/ knotsBaromVisibWave heightAir tempDewpointWater temp
2014-Oct-20 15:33N 41°23' W 070°29'2 1.6
2014-Oct-20 14:20N 41°24' W 070°31'0 0.2
2014-Oct-20 12:06N 41°25' W 070°31'0 0.5
2014-Oct-20 11:25N 41°25' W 070°31'3 2.8
2014-Oct-20 10:28N 41°27' W 070°33'2 0.0
2014-Oct-18 07:17N 41°27' W 070°36'1 1.7
2014-Oct-18 06:28N 41°29' W 070°35'5 5.3
2014-Oct-18 05:33N 41°31' W 070°41'6 5.7
2014-Oct-18 04:33N 41°33' W 070°48'5 5.0
2014-Oct-18 03:34N 41°36' W 070°53'0 0.1
2014-Oct-18 01:09N 41°36' W 070°54'3 5.5
2014-Oct-18 00:33N 41°33' W 070°51'6 5.6
2014-Oct-17 23:29N 41°32' W 070°43'5 5.1
2014-Oct-17 22:33N 41°30' W 070°37'5 4.8
2014-Oct-17 21:32N 41°29' W 070°31'5 4.8
2014-Oct-17 20:33N 41°27' W 070°25'14 1.2
2014-Oct-17 08:33N 41°22' W 070°08'5 4.8
2014-Oct-17 07:27N 41°25' W 070°14'5 5.4
2014-Oct-17 06:31N 41°26' W 070°20'5 4.8
2014-Oct-17 05:33N 41°27' W 070°26'4 4.5
2014-Oct-17 04:33N 41°28' W 070°32'4 3.7
2014-Oct-17 03:33N 41°30' W 070°36'3 3.3
2014-Oct-17 02:34N 41°31' W 070°40'2 2.0
2014-Oct-17 01:33N 41°32' W 070°43'5 4.7
2014-Oct-17 00:33N 41°33' W 070°49'4 4.1
2014-Oct-16 23:33N 41°35' W 070°53'3 3.5
2014-Oct-16 22:33N 41°39' W 070°55'0 0.0
2014-Oct-16 20:20N 41°39' W 070°55'8 1.8
2014-Oct-16 16:12N 41°33' W 070°49'4 6.1
2014-Oct-16 15:33N 41°32' W 070°44'8 5.5
2014-Oct-16 14:11N 41°27' W 070°36'0 0.0
2014-Oct-15 18:13N 41°27' W 070°36'0 0.2
2014-Oct-15 17:34N 41°27' W 070°36'4 4.5
2014-Oct-15 16:33N 41°28' W 070°30'8 7.2
2014-Oct-15 15:30N 41°27' W 070°20'7 7.3
2014-Oct-15 14:33N 41°25' W 070°11'7 7.2
2014-Oct-15 13:33N 41°19' W 070°06'2 1.7
2014-Oct-15 12:33N 41°17' W 070°06'0 0.0
2014-Oct-15 11:31N 41°17' W 070°06'0 0.0
2014-Oct-15 10:33N 41°17' W 070°06'0 0.0
2014-Oct-15 09:33N 41°17' W 070°06'0 0.0
2014-Oct-15 08:33N 41°17' W 070°06'1 0.8
2014-Oct-15 07:33N 41°18' W 070°06'6 6.3
2014-Oct-15 06:33N 41°24' W 070°09'7 6.8
2014-Oct-15 05:33N 41°26' W 070°17'7 7.1
2014-Oct-15 04:33N 41°28' W 070°27'7 6.6
2014-Oct-15 03:33N 41°29' W 070°35'6 6.3
2014-Oct-15 02:33N 41°32' W 070°43'6 6.3
2014-Oct-15 01:33N 41°33' W 070°51'5 5.4
2014-Oct-15 00:34N 41°38' W 070°55'0 0.1
2014-Oct-14 22:33N 41°38' W 070°55'6 6.0
2014-Oct-14 21:33N 41°33' W 070°51'8 7.6
2014-Oct-14 20:33N 41°31' W 070°41'5 5.0
2014-Oct-14 19:31N 41°27' W 070°36'0 0.0
2014-Oct-14 18:33N 41°27' W 070°36'0 0.0
2014-Oct-14 17:33N 41°27' W 070°36'0 0.2
2014-Oct-14 16:34N 41°28' W 070°36'5 5.2
2014-Oct-14 15:33N 41°31' W 070°41'7 6.6
2014-Oct-14 14:33N 41°33' W 070°49'12 0.9
2014-Oct-14 02:20N 41°27' W 070°36'0 0.0
2014-Oct-14 01:30N 41°27' W 070°36'0 0.0
2014-Oct-14 00:33N 41°27' W 070°36'  

Dump ship's entire track history